LGPZ/PVK METAR and TAF weather

Enter ICAO airport designator
Station Type Date Time Source
LGPZ METAR 2019/08/18 08:50 UTC NOAA

LGPZ 180850Z 27004KT CAVOK 31/18 Q1016


Station Type Date Time Source
LGPZ Decoded METAR 2019/08/18 08:50 UTC NOAA

Station name not available
Aug 18, 2019 - 04:50 AM EDT / 2019.08.18 0850 UTC
Wind: from the W (270 degrees) at 5 MPH (4 KT):0
Visibility: greater than 7 mile(s):0
Temperature: 87 F (31 C)
Dew Point: 64 F (18 C)
Relative Humidity: 45%
Pressure (altimeter): 30.00 in. Hg (1016 hPa)
ob: LGPZ 180850Z 27004KT CAVOK 31/18 Q1016
cycle: 9

Station Type Date Time Source
LGPZ TAF 2019/08/18 06:15 UTC NOAA

TAF LGPZ 180500Z 1806/1906 07010KT 9999 FEW030
BECMG 1810/1812 27015KT
BECMG 1818/1820 VRB05KT

Example: see airport list